createdAt,value
2019-05-03T00:02:35.504Z,67.36
2019-05-03T00:05:12.526Z,67.14
2019-05-03T00:07:42.282Z,67.39
2019-05-03T00:10:12.885Z,67.33
2019-05-03T00:12:42.653Z,67.39
2019-05-03T00:15:23.291Z,67.55
2019-05-03T00:17:52.934Z,67.44
2019-05-03T00:20:22.551Z,67.20
2019-05-03T00:22:52.465Z,67.02
2019-05-03T00:25:24.961Z,66.79
2019-05-03T00:27:54.648Z,66.83
2019-05-03T00:30:24.265Z,67.06
2019-05-03T00:32:53.931Z,66.95
2019-05-03T00:35:33.837Z,66.79
2019-05-03T00:38:05.871Z,66.99
2019-05-03T00:40:35.492Z,66.86
2019-05-03T00:43:05.163Z,66.75
2019-05-03T00:45:34.992Z,66.66
2019-05-03T00:48:04.605Z,66.34
2019-05-03T00:50:34.212Z,66.33
2019-05-03T00:53:05.016Z,66.34
2019-05-03T00:55:34.621Z,66.20
2019-05-03T00:58:04.362Z,66.00
2019-05-03T01:00:34.009Z,65.86
2019-05-03T01:03:03.615Z,65.78
2019-05-03T01:05:33.265Z,65.67
2019-05-03T01:08:02.962Z,65.43
2019-05-03T01:10:33.130Z,64.84
2019-05-03T01:13:03.000Z,64.83
2019-05-03T01:15:51.954Z,64.76
2019-05-03T01:18:22.458Z,64.21
2019-05-03T01:20:52.346Z,64.08
2019-05-03T01:23:22.057Z,64.05
2019-05-03T01:25:51.771Z,63.73
2019-05-03T01:28:21.660Z,63.88
2019-05-03T01:30:51.896Z,63.55
2019-05-03T01:33:22.592Z,63.41
2019-05-03T01:35:52.302Z,62.95
2019-05-03T01:38:22.682Z,62.92
2019-05-03T01:40:52.429Z,62.96
2019-05-03T01:43:22.311Z,62.83
2019-05-03T01:45:52.338Z,62.87
2019-05-03T01:48:35.686Z,62.84
2019-05-03T01:51:24.807Z,62.63
2019-05-03T01:53:54.413Z,62.51
2019-05-03T01:56:25.005Z,62.46
2019-05-03T01:58:54.656Z,62.60
2019-05-03T02:01:44.392Z,62.28
2019-05-03T02:04:15.715Z,62.33
2019-05-03T02:06:45.800Z,62.71
2019-05-03T02:09:15.401Z,62.58
2019-05-03T02:11:45.055Z,62.81
2019-05-03T02:14:14.666Z,62.86
2019-05-03T02:16:44.272Z,63.02
2019-05-03T02:19:13.923Z,63.30
2019-05-03T02:21:43.658Z,63.32
2019-05-03T02:24:13.629Z,63.63
2019-05-03T02:26:43.319Z,63.63
2019-05-03T02:29:12.924Z,63.55
2019-05-03T02:31:43.858Z,63.70
2019-05-03T02:34:14.300Z,63.89
2019-05-03T02:36:43.917Z,64.14
2019-05-03T02:39:15.177Z,64.39
2019-05-03T02:41:48.379Z,64.24
2019-05-03T02:44:17.814Z,64.47
2019-05-03T02:46:52.057Z,64.80
2019-05-03T02:49:25.517Z,64.77
2019-05-03T02:51:55.630Z,64.72
2019-05-03T02:54:26.845Z,64.87
2019-05-03T02:56:57.973Z,64.87
2019-05-03T02:59:28.450Z,65.08
2019-05-03T03:01:58.433Z,65.18
2019-05-03T03:04:28.108Z,65.42
2019-05-03T03:06:59.068Z,65.53
2019-05-03T03:09:30.028Z,65.54
2019-05-03T03:12:00.614Z,65.61
2019-05-03T03:14:32.503Z,65.73
2019-05-03T03:17:06.644Z,65.69
2019-05-03T03:19:38.000Z,65.71
2019-05-03T03:22:11.062Z,65.96
2019-05-03T03:24:45.806Z,66.14
2019-05-03T03:27:18.453Z,66.17
2019-05-03T03:29:51.122Z,66.27
2019-05-03T03:32:29.592Z,66.28
2019-05-03T03:35:20.312Z,66.43
2019-05-03T03:37:46.381Z,66.30
2019-05-03T03:40:17.989Z,66.44
2019-05-03T03:42:50.905Z,66.71
2019-05-03T03:45:20.626Z,66.74
2019-05-03T03:47:56.115Z,67.46
2019-05-03T03:50:26.192Z,67.87
2019-05-03T03:52:59.155Z,68.53
2019-05-03T03:55:35.331Z,68.29
2019-05-03T03:58:06.429Z,68.67
2019-05-03T04:00:36.555Z,69.11
2019-05-03T04:03:07.679Z,69.20
2019-05-03T04:05:38.038Z,69.71
2019-05-03T04:08:07.733Z,70.23
2019-05-03T04:10:38.373Z,70.99
2019-05-03T04:13:09.841Z,71.72
2019-05-03T04:15:41.758Z,71.85
2019-05-03T04:18:16.185Z,72.14
2019-05-03T04:20:45.865Z,73.02
2019-05-03T04:23:16.365Z,72.81
2019-05-03T04:25:46.480Z,72.46
2019-05-03T04:28:16.488Z,71.84
2019-05-03T04:30:46.184Z,71.28
2019-05-03T04:33:16.655Z,70.83
2019-05-03T04:35:46.640Z,70.57
2019-05-03T04:38:16.577Z,70.80
2019-05-03T04:40:46.272Z,71.24
2019-05-03T04:43:16.992Z,71.49
2019-05-03T04:45:48.247Z,71.66
2019-05-03T04:48:17.885Z,72.01
2019-05-03T04:50:47.513Z,71.86
2019-05-03T04:53:17.115Z,71.97
2019-05-03T04:55:47.050Z,71.56
2019-05-03T04:58:16.758Z,71.03
2019-05-03T05:00:46.726Z,70.69
2019-05-03T05:03:16.469Z,70.74
2019-05-03T05:05:46.156Z,70.94
2019-05-03T05:08:16.384Z,70.99
2019-05-03T05:10:46.325Z,70.93
2019-05-03T05:13:17.033Z,70.85
2019-05-03T05:15:46.673Z,71.53
2019-05-03T05:18:21.082Z,72.33
2019-05-03T05:20:55.569Z,72.93
2019-05-03T05:23:25.282Z,72.86
2019-05-03T05:26:05.635Z,73.03
2019-05-03T05:28:48.718Z,73.58
2019-05-03T05:31:18.844Z,73.75
2019-05-03T05:33:48.529Z,74.35
2019-05-03T05:36:18.144Z,74.32
2019-05-03T05:38:47.840Z,74.03
2019-05-03T05:41:17.449Z,73.64
2019-05-03T05:43:47.061Z,73.44
2019-05-03T05:46:17.386Z,73.84
2019-05-03T05:48:51.224Z,73.64
2019-05-03T05:51:21.727Z,73.30
2019-05-03T05:53:51.668Z,72.99
2019-05-03T05:56:24.959Z,72.71
2019-05-03T05:58:55.890Z,72.27
2019-05-03T06:01:27.199Z,71.64
2019-05-03T06:03:56.892Z,72.11
2019-05-03T06:06:45.107Z,72.62
2019-05-03T06:09:16.573Z,72.66
2019-05-03T06:11:47.833Z,72.23
2019-05-03T06:14:19.151Z,71.73
2019-05-03T06:16:50.417Z,71.03
2019-05-03T06:19:21.669Z,70.80
2019-05-03T06:21:55.455Z,70.53
2019-05-03T06:24:32.574Z,70.64
2019-05-03T06:27:06.569Z,70.55
2019-05-03T06:29:37.060Z,70.15
2019-05-03T06:32:08.436Z,69.71
2019-05-03T06:34:38.127Z,69.38
2019-05-03T06:37:12.385Z,68.37
2019-05-03T06:39:45.485Z,67.74
2019-05-03T06:42:19.124Z,67.94
2019-05-03T06:44:46.469Z,68.12
2019-05-03T06:47:16.080Z,68.04
2019-05-03T06:49:48.468Z,67.82
2019-05-03T06:52:19.750Z,67.43
2019-05-03T06:54:48.438Z,66.60
2019-05-03T06:57:19.333Z,66.18
2019-05-03T06:59:50.590Z,65.17
2019-05-03T07:02:21.860Z,64.98
2019-05-03T07:04:58.758Z,64.89
2019-05-03T07:07:30.035Z,64.65
2019-05-03T07:10:05.027Z,64.58
2019-05-03T07:12:54.705Z,64.60
2019-05-03T07:15:25.345Z,64.73
2019-05-03T07:17:55.609Z,64.37
2019-05-03T07:20:27.092Z,64.52
2019-05-03T07:22:56.765Z,64.52
2019-05-03T07:25:26.544Z,64.41
2019-05-03T07:28:07.002Z,63.64
2019-05-03T07:30:38.154Z,63.00
2019-05-03T07:33:09.530Z,63.07
2019-05-03T07:35:41.044Z,62.91
2019-05-03T07:38:10.786Z,63.20
2019-05-03T07:40:40.481Z,63.41
2019-05-03T07:43:11.210Z,63.39
2019-05-03T07:45:40.823Z,62.71
2019-05-03T07:48:10.492Z,62.64
2019-05-03T07:50:40.251Z,61.76
2019-05-03T07:53:10.089Z,61.04
2019-05-03T07:55:56.604Z,60.07
2019-05-03T07:58:35.162Z,59.18
2019-05-03T08:01:09.781Z,59.15
2019-05-03T08:03:38.709Z,59.75
2019-05-03T08:06:08.417Z,60.04
2019-05-03T08:08:40.965Z,59.34
2019-05-03T08:11:10.638Z,58.29
2019-05-03T08:13:40.514Z,57.87
2019-05-03T08:16:10.347Z,57.97
2019-05-03T08:18:40.055Z,57.75
2019-05-03T08:21:09.811Z,57.52
2019-05-03T08:23:39.476Z,56.71
2019-05-03T08:26:09.108Z,56.18
2019-05-03T08:28:38.729Z,56.38
2019-05-03T08:31:15.821Z,55.59
2019-05-03T08:33:50.409Z,55.16
2019-05-03T08:36:21.355Z,55.17
2019-05-03T08:38:51.046Z,54.95
2019-05-03T08:41:25.380Z,53.87
2019-05-03T08:43:55.428Z,53.66
2019-05-03T08:46:25.685Z,53.23
2019-05-03T08:48:55.295Z,53.77
2019-05-03T08:51:25.197Z,54.16
2019-05-03T08:53:56.018Z,53.66
2019-05-03T08:56:25.797Z,52.99
2019-05-03T08:58:55.650Z,51.95
2019-05-03T09:01:25.999Z,51.80
2019-05-03T09:03:58.827Z,49.93
2019-05-03T09:06:28.520Z,48.87
2019-05-03T09:08:58.181Z,48.22
2019-05-03T09:11:33.549Z,49.82
2019-05-03T09:14:01.154Z,50.23
2019-05-03T09:16:31.146Z,49.89
2019-05-03T09:19:00.932Z,50.17
2019-05-03T09:21:30.621Z,50.52
2019-05-03T09:24:04.709Z,50.87
2019-05-03T09:26:35.102Z,49.61
2019-05-03T09:29:05.665Z,50.03
2019-05-03T09:31:35.411Z,50.09
2019-05-03T09:34:08.045Z,50.07
2019-05-03T09:36:36.766Z,47.17
2019-05-03T09:39:08.255Z,48.62
2019-05-03T09:41:37.877Z,47.96
2019-05-03T09:44:07.560Z,45.49
2019-05-03T09:46:37.189Z,46.61
2019-05-03T09:49:12.779Z,47.36
2019-05-03T09:51:38.349Z,46.21
2019-05-03T09:54:15.632Z,45.72
2019-05-03T09:56:58.778Z,46.24
2019-05-03T09:59:29.724Z,46.46
2019-05-03T10:01:59.835Z,45.11
2019-05-03T10:04:29.488Z,45.43
2019-05-03T10:06:59.215Z,46.07
2019-05-03T10:09:28.900Z,46.58
2019-05-03T10:11:59.277Z,46.32
2019-05-03T10:14:30.252Z,46.27
2019-05-03T10:17:19.653Z,46.25
2019-05-03T10:19:49.324Z,46.13
2019-05-03T10:22:22.004Z,46.47
2019-05-03T10:24:51.896Z,46.35
2019-05-03T10:27:21.686Z,46.13
2019-05-03T10:29:51.396Z,46.31
2019-05-03T10:32:25.690Z,45.99
2019-05-03T10:34:56.999Z,45.41
2019-05-03T10:37:35.682Z,45.69
2019-05-03T10:40:08.122Z,45.79
2019-05-03T10:42:38.223Z,45.15
2019-05-03T10:45:09.392Z,44.95
2019-05-03T10:47:39.076Z,45.39
2019-05-03T10:50:09.010Z,44.87
2019-05-03T10:52:44.717Z,45.33
2019-05-03T10:55:15.950Z,45.38
2019-05-03T10:57:47.473Z,45.39
2019-05-03T11:00:42.456Z,45.22
2019-05-03T11:02:55.081Z,45.14
2019-05-03T11:05:24.975Z,43.71
2019-05-03T11:07:55.613Z,43.43
2019-05-03T11:10:25.541Z,43.37
2019-05-03T11:12:55.238Z,44.52
2019-05-03T11:15:25.907Z,44.64
2019-05-03T11:17:55.661Z,45.02
2019-05-03T11:20:32.124Z,44.41
2019-05-03T11:23:02.823Z,44.44
2019-05-03T11:25:34.460Z,43.84
2019-05-03T11:28:06.934Z,43.74
2019-05-03T11:30:36.557Z,43.27
2019-05-03T11:33:07.817Z,43.14
2019-05-03T11:35:44.913Z,42.42
2019-05-03T11:38:16.311Z,42.67
2019-05-03T11:40:48.172Z,42.24
2019-05-03T11:43:19.570Z,42.54
2019-05-03T11:45:49.333Z,42.68
2019-05-03T11:48:25.315Z,42.60
2019-05-03T11:50:56.065Z,42.66
2019-05-03T11:53:26.065Z,42.24
2019-05-03T11:58:50.621Z,41.24
2019-05-03T12:01:28.018Z,40.86
2019-05-03T12:03:57.951Z,40.51
2019-05-03T12:06:36.941Z,41.19
2019-05-03T12:09:09.379Z,39.31
2019-05-03T12:11:41.084Z,39.78
2019-05-03T12:14:12.418Z,39.65
2019-05-03T12:17:19.135Z,39.51
2019-05-03T12:19:38.230Z,39.70
2019-05-03T12:22:09.251Z,39.89
2019-05-03T12:24:39.951Z,39.86
2019-05-03T12:27:10.017Z,39.26
2019-05-03T12:29:39.715Z,40.89
2019-05-03T13:01:40.642Z,43.75
2019-05-03T13:03:59.753Z,41.23
2019-05-03T13:06:31.017Z,39.97
2019-05-03T13:09:00.672Z,40.98
2019-05-03T13:11:34.702Z,42.54
2019-05-03T13:14:04.791Z,44.21
2019-05-03T13:16:35.411Z,45.24
2019-05-03T13:19:05.632Z,42.41
2019-05-03T13:21:35.676Z,39.46
2019-05-03T13:24:05.603Z,38.44
2019-05-03T13:26:35.352Z,38.15
2019-05-03T13:29:05.853Z,37.89
2019-05-03T13:31:35.753Z,37.94
2019-05-03T13:34:05.731Z,39.73
2019-05-03T13:36:35.457Z,41.18
2019-05-03T13:39:13.896Z,41.24
2019-05-03T13:41:38.493Z,42.35
2019-05-03T13:44:08.128Z,40.99
2019-05-03T13:46:37.826Z,36.53
2019-05-03T13:49:08.836Z,37.30
2019-05-03T13:51:38.554Z,39.17
2019-05-03T13:54:08.209Z,40.68
2019-05-03T13:56:37.836Z,41.57
2019-05-03T13:59:18.477Z,42.48
2019-05-03T14:01:38.847Z,43.60
2019-05-03T14:04:08.497Z,44.42
2019-05-03T14:06:38.140Z,44.72
2019-05-03T14:09:07.817Z,45.22
2019-05-03T14:11:38.954Z,45.15
2019-05-03T14:14:08.663Z,43.75
2019-05-03T14:16:38.308Z,43.85
2019-05-03T14:19:12.315Z,43.67
2019-05-03T14:21:43.621Z,43.20
2019-05-03T14:24:15.614Z,43.39
2019-05-03T14:26:44.978Z,43.23
2019-05-03T14:29:15.075Z,42.83
2019-05-03T14:31:45.565Z,42.53
2019-05-03T14:34:17.472Z,42.89
2019-05-03T14:36:46.631Z,42.93
2019-05-03T14:39:16.356Z,43.41
2019-05-03T14:41:46.923Z,43.52
2019-05-03T14:44:18.116Z,43.85
2019-05-03T14:46:48.182Z,44.46
2019-05-03T14:49:17.791Z,44.45
2019-05-03T14:51:47.510Z,44.52
2019-05-03T14:54:21.757Z,45.08
2019-05-03T14:57:09.293Z,45.78
2019-05-03T14:59:56.728Z,45.51
2019-05-03T15:02:40.900Z,44.88
2019-05-03T15:05:02.310Z,44.97
2019-05-03T15:07:31.980Z,44.37
2019-05-03T15:10:01.622Z,44.33
2019-05-03T15:12:31.253Z,44.53
2019-05-03T15:15:01.148Z,44.84
2019-05-03T15:17:30.773Z,44.94
2019-05-03T15:20:00.416Z,45.26
2019-05-03T15:22:30.064Z,45.19
2019-05-03T15:24:59.763Z,45.47
2019-05-03T15:27:30.965Z,45.46
2019-05-03T15:30:00.632Z,45.31
2019-05-03T15:32:30.257Z,44.99
2019-05-03T15:35:00.663Z,44.57
2019-05-03T15:37:30.342Z,44.62
2019-05-03T15:39:59.972Z,44.67
2019-05-03T15:42:29.869Z,44.67
2019-05-03T15:45:07.068Z,44.32
2019-05-03T15:47:38.685Z,44.31
2019-05-03T15:50:08.943Z,44.64
2019-05-03T15:52:38.660Z,44.85
2019-05-03T15:55:08.699Z,44.90
2019-05-03T15:57:38.373Z,44.73
2019-05-03T16:00:10.040Z,45.22
2019-05-03T16:02:39.669Z,45.36
2019-05-03T16:05:09.302Z,45.42
2019-05-03T16:07:39.176Z,45.42
2019-05-03T16:10:08.865Z,45.39
2019-05-03T16:12:38.481Z,45.67
2019-05-03T16:15:08.494Z,45.77
2019-05-03T16:17:38.089Z,45.81
2019-05-03T16:20:08.133Z,46.01
2019-05-03T16:22:37.821Z,46.12
2019-05-03T16:25:08.459Z,46.24
2019-05-03T16:27:39.720Z,46.58
2019-05-03T16:30:11.490Z,46.85
2019-05-03T16:32:41.139Z,47.09
2019-05-03T16:35:14.871Z,47.36
2019-05-03T16:37:45.227Z,47.60
2019-05-03T16:40:16.758Z,48.02
2019-05-03T16:42:46.718Z,48.01
2019-05-03T16:45:17.069Z,48.19
2019-05-03T16:47:46.816Z,48.31
2019-05-03T16:50:16.789Z,48.34
2019-05-03T16:52:46.447Z,48.50
2019-05-03T16:55:16.399Z,48.57
2019-05-03T16:57:46.302Z,48.83
2019-05-03T17:00:17.838Z,49.24
2019-05-03T17:02:47.638Z,49.65
2019-05-03T17:05:21.718Z,49.82
2019-05-03T17:08:09.602Z,50.03
2019-05-03T17:10:45.375Z,50.35
2019-05-03T17:13:14.833Z,50.45
2019-05-03T17:15:44.636Z,50.57
2019-05-03T17:18:14.688Z,50.47
2019-05-03T17:20:45.689Z,50.67
2019-05-03T17:23:15.535Z,51.08
2019-05-03T17:25:45.156Z,51.39
2019-05-03T17:28:15.702Z,53.79
2019-05-03T17:30:45.506Z,56.18
2019-05-03T17:33:16.115Z,57.88
2019-05-03T17:35:45.851Z,58.09
2019-05-03T17:38:15.771Z,57.85
2019-05-03T17:41:04.322Z,58.81
2019-05-03T17:43:38.430Z,59.39
2019-05-03T17:46:09.921Z,59.58
2019-05-03T17:48:39.548Z,59.83
2019-05-03T17:51:10.887Z,60.32
2019-05-03T17:53:54.792Z,61.00
2019-05-03T17:56:32.072Z,61.19
2019-05-03T17:59:09.037Z,61.41
2019-05-03T18:01:58.066Z,61.67
2019-05-03T18:04:41.482Z,61.02
2019-05-03T18:07:15.473Z,60.67
2019-05-03T18:09:46.756Z,60.49
2019-05-03T18:12:17.596Z,60.33
2019-05-03T18:14:47.633Z,59.84
2019-05-03T18:17:18.519Z,59.75
2019-05-03T18:19:48.250Z,60.26
2019-05-03T18:22:18.047Z,60.86
2019-05-03T18:24:47.892Z,61.25
2019-05-03T18:27:17.528Z,61.31
2019-05-03T18:29:47.287Z,61.42
2019-05-03T18:32:16.947Z,61.94
2019-05-03T18:34:46.572Z,61.80
2019-05-03T18:37:16.242Z,62.26
2019-05-03T18:39:45.879Z,62.16
2019-05-03T18:42:20.100Z,62.19
2019-05-03T18:44:51.737Z,62.42
2019-05-03T18:47:22.992Z,62.99
2019-05-03T18:49:54.858Z,63.51
2019-05-03T18:52:24.666Z,64.21
2019-05-03T18:54:55.132Z,64.39
2019-05-03T18:57:25.559Z,64.91
2019-05-03T18:59:55.707Z,64.96
2019-05-03T19:02:25.809Z,64.65
2019-05-03T19:04:56.033Z,64.71
2019-05-03T19:07:45.265Z,64.64
2019-05-03T19:10:26.018Z,64.70
2019-05-03T19:12:57.321Z,65.02
2019-05-03T19:15:27.113Z,64.97
2019-05-03T19:17:58.374Z,64.76
2019-05-03T19:20:28.136Z,64.75
2019-05-03T19:22:58.128Z,65.08
2019-05-03T19:25:27.755Z,65.16
2019-05-03T19:27:57.427Z,65.33
2019-05-03T19:30:27.169Z,65.57
2019-05-03T19:32:57.059Z,65.70
2019-05-03T19:35:27.664Z,65.58
2019-05-03T19:37:57.726Z,65.46
2019-05-03T19:40:27.345Z,65.65
2019-05-03T19:42:57.029Z,65.28
2019-05-03T19:45:26.663Z,65.74
2019-05-03T19:47:56.413Z,65.63
2019-05-03T19:50:27.264Z,65.61
2019-05-03T19:53:11.348Z,65.80
2019-05-03T19:55:40.992Z,65.58
2019-05-03T19:58:10.734Z,66.13
2019-05-03T20:00:51.196Z,66.42
2019-05-03T20:03:24.691Z,66.38
2019-05-03T20:05:55.433Z,66.09
2019-05-03T20:08:27.014Z,66.40
2019-05-03T20:10:58.280Z,66.45
2019-05-03T20:13:34.594Z,66.28
2019-05-03T20:15:59.357Z,66.56
2019-05-03T20:18:28.979Z,66.65
2019-05-03T20:20:58.602Z,66.56
2019-05-03T20:23:28.262Z,66.66
2019-05-03T20:25:57.892Z,66.97
2019-05-03T20:28:27.505Z,66.84
2019-05-03T20:30:57.212Z,67.20
2019-05-03T20:33:26.878Z,67.03
2019-05-03T20:36:00.174Z,67.17
2019-05-03T20:38:33.828Z,67.22
2019-05-03T20:41:08.918Z,67.46
2019-05-03T20:43:58.048Z,67.12
2019-05-03T20:46:43.540Z,67.26
2019-05-03T20:49:16.860Z,67.25
2019-05-03T20:51:51.405Z,67.20
2019-05-03T20:54:35.037Z,67.74
2019-05-03T20:57:05.940Z,67.83
2019-05-03T20:59:48.691Z,68.40
2019-05-03T21:02:17.272Z,68.19
2019-05-03T21:04:47.051Z,68.44
2019-05-03T21:07:16.715Z,68.63
2019-05-03T21:09:46.361Z,68.68
2019-05-03T21:12:16.459Z,68.57
2019-05-03T21:14:46.090Z,69.00
2019-05-03T21:17:34.570Z,69.11
2019-05-03T21:20:10.981Z,69.01
2019-05-03T21:22:44.277Z,69.30
2019-05-03T21:25:15.696Z,69.37
2019-05-03T21:27:45.362Z,69.50
2019-05-03T21:30:15.210Z,70.09
2019-05-03T21:32:44.799Z,70.52
2019-05-03T21:35:14.858Z,70.44
2019-05-03T21:37:45.404Z,70.47
2019-05-03T21:40:15.619Z,71.00
2019-05-03T21:42:45.403Z,70.90
2019-05-03T21:45:16.998Z,70.79
2019-05-03T21:47:48.510Z,71.10
2019-05-03T21:50:19.600Z,71.32
2019-05-03T21:52:49.313Z,70.92
2019-05-03T21:55:18.934Z,71.05
2019-05-03T21:57:48.627Z,70.75
2019-05-03T22:00:19.825Z,70.82
2019-05-03T22:02:49.847Z,70.78
2019-05-03T22:05:20.823Z,70.75
2019-05-03T22:07:56.587Z,70.32
2019-05-03T22:10:26.287Z,70.34
2019-05-03T22:12:55.899Z,70.40
2019-05-03T22:15:27.218Z,70.52
2019-05-03T22:21:07.111Z,70.45
2019-05-03T22:23:40.757Z,70.52
2019-05-03T22:26:10.563Z,70.07
2019-05-03T22:28:40.212Z,70.21
2019-05-03T22:31:09.831Z,70.37
2019-05-03T22:33:39.445Z,70.34
2019-05-03T22:36:09.199Z,70.39
2019-05-03T22:38:39.859Z,70.34
2019-05-03T22:41:09.508Z,70.23
2019-05-03T22:43:39.357Z,70.23
2019-05-03T22:46:09.040Z,70.08
2019-05-03T22:48:39.599Z,70.07
2019-05-03T22:51:09.627Z,70.14
2019-05-03T22:53:39.411Z,69.89
2019-05-03T22:56:09.828Z,69.92
2019-05-03T22:58:39.479Z,69.48
2019-05-03T23:01:09.148Z,69.34
2019-05-03T23:03:45.414Z,69.33
2019-05-03T23:06:22.132Z,69.36
2019-05-03T23:08:46.355Z,69.29
2019-05-03T23:11:16.034Z,69.74
2019-05-03T23:13:47.297Z,69.92
2019-05-03T23:16:16.909Z,69.89
2019-05-03T23:18:46.732Z,69.85
2019-05-03T23:21:20.838Z,70.07
2019-05-03T23:23:52.018Z,69.67
2019-05-03T23:26:21.686Z,69.73
2019-05-03T23:28:51.373Z,69.82
2019-05-03T23:31:21.062Z,69.71
2019-05-03T23:33:50.718Z,69.70
2019-05-03T23:36:32.506Z,69.64
2019-05-03T23:38:51.636Z,69.64
2019-05-03T23:41:21.983Z,69.78
2019-05-03T23:43:51.587Z,69.64
2019-05-03T23:46:22.846Z,69.70
2019-05-03T23:48:52.592Z,69.60
2019-05-03T23:51:40.319Z,69.55
2019-05-03T23:54:10.430Z,69.79
2019-05-03T23:56:40.110Z,69.72
2019-05-03T23:59:09.756Z,69.97
